<?xml version="1.0" encoding="UTF-8" standalone="no" ?>
<gpx xmlns="http://www.topografix.com/GPX/1/1" xmlns:xsi="http://www.w3.org/2001/XMLSchema-instance" xsi:schemaLocation="http://www.topografix.com/GPX/1/1 http://www.topografix.com/GPX/1/1/gpx.xsd" version="1.1" creator="VisuGPX - https://www.visugpx.com">
  <metadata>
    <name>Traversée des Pyrénées 1/8</name>
    <desc><![CDATA[Partie 1/8 de la traversée des Pyrénées à ski.]]></desc>
  </metadata>
  <trk>
    <name><![CDATA[TPS1 06 FEB 2016]]></name>
    <trkseg>
      <trkpt lat="42.44567" lon="2.35719">
        <ele>1906.43</ele>
        <time>2017-02-06T08:11:00Z</time>
      </trkpt>
      <trkpt lat="42.4456" lon="2.35675">
        <ele>1906.91</ele>
        <time>2017-02-06T08:18:09Z</time>
      </trkpt>
      <trkpt lat="42.44595" lon="2.35614">
        <ele>1901.63</ele>
        <time>2017-02-06T08:18:59Z</time>
      </trkpt>
      <trkpt lat="42.44598" lon="2.35541">
        <ele>1906.43</ele>
        <time>2017-02-06T08:28:01Z</time>
      </trkpt>
      <trkpt lat="42.44575" lon="2.35482">
        <ele>1918.45</ele>
        <time>2017-02-06T08:30:02Z</time>
      </trkpt>
      <trkpt lat="42.44438" lon="2.35238">
        <ele>1954.98</ele>
        <time>2017-02-06T08:38:57Z</time>
      </trkpt>
      <trkpt lat="42.44395" lon="2.3514">
        <ele>1943.92</ele>
        <time>2017-02-06T08:41:01Z</time>
      </trkpt>
      <trkpt lat="42.44358" lon="2.35058">
        <ele>1955.46</ele>
        <time>2017-02-06T08:43:01Z</time>
      </trkpt>
      <trkpt lat="42.44282" lon="2.34871">
        <ele>2000.64</ele>
        <time>2017-02-06T08:49:05Z</time>
      </trkpt>
      <trkpt lat="42.44206" lon="2.34702">
        <ele>2016.5</ele>
        <time>2017-02-06T08:52:53Z</time>
      </trkpt>
      <trkpt lat="42.44143" lon="2.34608">
        <ele>2022.27</ele>
        <time>2017-02-06T08:55:12Z</time>
      </trkpt>
      <trkpt lat="42.44143" lon="2.34608">
        <ele>2022.27</ele>
        <time>2017-02-06T08:55:13Z</time>
      </trkpt>
      <trkpt lat="42.44107" lon="2.3457">
        <ele>2033.33</ele>
        <time>2017-02-06T08:57:47Z</time>
      </trkpt>
      <trkpt lat="42.44052" lon="2.34568">
        <ele>2048.71</ele>
        <time>2017-02-06T08:59:36Z</time>
      </trkpt>
      <trkpt lat="42.44014" lon="2.34421">
        <ele>2055.44</ele>
        <time>2017-02-06T09:02:55Z</time>
      </trkpt>
      <trkpt lat="42.43997" lon="2.34166">
        <ele>2055.44</ele>
        <time>2017-02-06T09:07:27Z</time>
      </trkpt>
      <trkpt lat="42.4397" lon="2.33939">
        <ele>2078.99</ele>
        <time>2017-02-06T09:17:54Z</time>
      </trkpt>
      <trkpt lat="42.43937" lon="2.33693">
        <ele>2120.81</ele>
        <time>2017-02-06T09:24:38Z</time>
      </trkpt>
      <trkpt lat="42.43921" lon="2.33456">
        <ele>2190.02</ele>
        <time>2017-02-06T09:35:57Z</time>
      </trkpt>
      <trkpt lat="42.43909" lon="2.33346">
        <ele>2210.21</ele>
        <time>2017-02-06T09:38:43Z</time>
      </trkpt>
      <trkpt lat="42.43888" lon="2.33313">
        <ele>2224.63</ele>
        <time>2017-02-06T09:39:47Z</time>
      </trkpt>
      <trkpt lat="42.43821" lon="2.33273">
        <ele>2245.78</ele>
        <time>2017-02-06T09:44:14Z</time>
      </trkpt>
      <trkpt lat="42.43785" lon="2.33188">
        <ele>2267.41</ele>
        <time>2017-02-06T09:54:34Z</time>
      </trkpt>
      <trkpt lat="42.43775" lon="2.33083">
        <ele>2272.69</ele>
        <time>2017-02-06T09:56:54Z</time>
      </trkpt>
      <trkpt lat="42.43735" lon="2.3291">
        <ele>2296.73</ele>
        <time>2017-02-06T10:05:42Z</time>
      </trkpt>
      <trkpt lat="42.43637" lon="2.32809">
        <ele>2364.98</ele>
        <time>2017-02-06T10:21:31Z</time>
      </trkpt>
      <trkpt lat="42.43618" lon="2.3279">
        <ele>2377.96</ele>
        <time>2017-02-06T10:22:42Z</time>
      </trkpt>
      <trkpt lat="42.43617" lon="2.32789">
        <ele>2377.96</ele>
        <time>2017-02-06T10:22:43Z</time>
      </trkpt>
      <trkpt lat="42.43591" lon="2.32753">
        <ele>2382.28</ele>
        <time>2017-02-06T10:26:00Z</time>
      </trkpt>
      <trkpt lat="42.43547" lon="2.32648">
        <ele>2385.65</ele>
        <time>2017-02-06T10:27:28Z</time>
      </trkpt>
      <trkpt lat="42.43452" lon="2.3252">
        <ele>2363.06</ele>
        <time>2017-02-06T10:29:23Z</time>
      </trkpt>
      <trkpt lat="42.43426" lon="2.32459">
        <ele>2358.25</ele>
        <time>2017-02-06T10:29:58Z</time>
      </trkpt>
      <trkpt lat="42.43415" lon="2.32431">
        <ele>2356.33</ele>
        <time>2017-02-06T10:30:20Z</time>
      </trkpt>
      <trkpt lat="42.4338" lon="2.3238">
        <ele>2356.33</ele>
        <time>2017-02-06T10:31:00Z</time>
      </trkpt>
      <trkpt lat="42.43374" lon="2.32371">
        <ele>2352</ele>
        <time>2017-02-06T10:31:06Z</time>
      </trkpt>
      <trkpt lat="42.43326" lon="2.3229">
        <ele>2345.27</ele>
        <time>2017-02-06T10:32:20Z</time>
      </trkpt>
      <trkpt lat="42.43289" lon="2.32222">
        <ele>2359.69</ele>
        <time>2017-02-06T10:33:31Z</time>
      </trkpt>
      <trkpt lat="42.43213" lon="2.32136">
        <ele>2365.46</ele>
        <time>2017-02-06T10:35:34Z</time>
      </trkpt>
      <trkpt lat="42.43119" lon="2.31964">
        <ele>2370.27</ele>
        <time>2017-02-06T10:38:42Z</time>
      </trkpt>
      <trkpt lat="42.43084" lon="2.31866">
        <ele>2360.17</ele>
        <time>2017-02-06T10:39:41Z</time>
      </trkpt>
      <trkpt lat="42.4302" lon="2.31743">
        <ele>2346.72</ele>
        <time>2017-02-06T10:41:16Z</time>
      </trkpt>
      <trkpt lat="42.43007" lon="2.31702">
        <ele>2340.95</ele>
        <time>2017-02-06T10:41:51Z</time>
      </trkpt>
      <trkpt lat="42.43006" lon="2.317">
        <ele>2344.31</ele>
        <time>2017-02-06T10:41:53Z</time>
      </trkpt>
      <trkpt lat="42.42996" lon="2.31667">
        <ele>2344.79</ele>
        <time>2017-02-06T10:42:28Z</time>
      </trkpt>
      <trkpt lat="42.42949" lon="2.31495">
        <ele>2353.93</ele>
        <time>2017-02-06T10:44:48Z</time>
      </trkpt>
      <trkpt lat="42.42939" lon="2.31428">
        <ele>2351.04</ele>
        <time>2017-02-06T10:45:56Z</time>
      </trkpt>
      <trkpt lat="42.4294" lon="2.31398">
        <ele>2355.85</ele>
        <time>2017-02-06T10:46:22Z</time>
      </trkpt>
      <trkpt lat="42.4294" lon="2.31272">
        <ele>2349.6</ele>
        <time>2017-02-06T10:48:28Z</time>
      </trkpt>
      <trkpt lat="42.42954" lon="2.31241">
        <ele>2357.29</ele>
        <time>2017-02-06T10:49:07Z</time>
      </trkpt>
      <trkpt lat="42.4302" lon="2.31081">
        <ele>2375.55</ele>
        <time>2017-02-06T10:54:35Z</time>
      </trkpt>
      <trkpt lat="42.43115" lon="2.30892">
        <ele>2386.13</ele>
        <time>2017-02-06T10:59:44Z</time>
      </trkpt>
      <trkpt lat="42.43143" lon="2.30821">
        <ele>2398.15</ele>
        <time>2017-02-06T11:01:40Z</time>
      </trkpt>
      <trkpt lat="42.43148" lon="2.30581">
        <ele>2420.74</ele>
        <time>2017-02-06T11:07:24Z</time>
      </trkpt>
      <trkpt lat="42.42834" lon="2.30204">
        <ele>2396.7</ele>
        <time>2017-02-06T11:16:24Z</time>
      </trkpt>
      <trkpt lat="42.42727" lon="2.29986">
        <ele>2399.59</ele>
        <time>2017-02-06T11:19:18Z</time>
      </trkpt>
      <trkpt lat="42.42668" lon="2.29783">
        <ele>2396.7</ele>
        <time>2017-02-06T11:22:31Z</time>
      </trkpt>
      <trkpt lat="42.42668" lon="2.2978">
        <ele>2392.86</ele>
        <time>2017-02-06T11:22:33Z</time>
      </trkpt>
      <trkpt lat="42.42905" lon="2.29232">
        <ele>2383.73</ele>
        <time>2017-02-06T11:31:41Z</time>
      </trkpt>
      <trkpt lat="42.42905" lon="2.29231">
        <ele>2383.73</ele>
        <time>2017-02-06T11:31:42Z</time>
      </trkpt>
      <trkpt lat="42.42969" lon="2.29107">
        <ele>2388.53</ele>
        <time>2017-02-06T11:33:37Z</time>
      </trkpt>
      <trkpt lat="42.43051" lon="2.28755">
        <ele>2397.18</ele>
        <time>2017-02-06T11:39:23Z</time>
      </trkpt>
      <trkpt lat="42.43051" lon="2.28754">
        <ele>2397.18</ele>
        <time>2017-02-06T11:39:24Z</time>
      </trkpt>
      <trkpt lat="42.43062" lon="2.28702">
        <ele>2393.82</ele>
        <time>2017-02-06T11:40:10Z</time>
      </trkpt>
      <trkpt lat="42.43064" lon="2.28697">
        <ele>2398.63</ele>
        <time>2017-02-06T11:40:14Z</time>
      </trkpt>
      <trkpt lat="42.42957" lon="2.28112">
        <ele>2386.61</ele>
        <time>2017-02-06T11:50:53Z</time>
      </trkpt>
      <trkpt lat="42.42952" lon="2.28044">
        <ele>2385.17</ele>
        <time>2017-02-06T11:51:33Z</time>
      </trkpt>
      <trkpt lat="42.42963" lon="2.27988">
        <ele>2389.49</ele>
        <time>2017-02-06T11:52:14Z</time>
      </trkpt>
      <trkpt lat="42.42987" lon="2.27896">
        <ele>2395.74</ele>
        <time>2017-02-06T11:55:26Z</time>
      </trkpt>
      <trkpt lat="42.43023" lon="2.27812">
        <ele>2403.43</ele>
        <time>2017-02-06T11:57:48Z</time>
      </trkpt>
      <trkpt lat="42.43064" lon="2.27797">
        <ele>2410.16</ele>
        <time>2017-02-06T11:59:48Z</time>
      </trkpt>
      <trkpt lat="42.43064" lon="2.27796">
        <ele>2410.16</ele>
        <time>2017-02-06T11:59:49Z</time>
      </trkpt>
      <trkpt lat="42.4307" lon="2.27784">
        <ele>2406.8</ele>
        <time>2017-02-06T12:00:09Z</time>
      </trkpt>
      <trkpt lat="42.4314" lon="2.2774">
        <ele>2419.3</ele>
        <time>2017-02-06T12:02:58Z</time>
      </trkpt>
      <trkpt lat="42.43141" lon="2.27739">
        <ele>2426.02</ele>
        <time>2017-02-06T12:02:59Z</time>
      </trkpt>
      <trkpt lat="42.43199" lon="2.2768">
        <ele>2435.64</ele>
        <time>2017-02-06T12:06:02Z</time>
      </trkpt>
      <trkpt lat="42.43204" lon="2.27669">
        <ele>2433.71</ele>
        <time>2017-02-06T12:06:45Z</time>
      </trkpt>
      <trkpt lat="42.43204" lon="2.27669">
        <ele>2435.64</ele>
        <time>2017-02-06T12:06:46Z</time>
      </trkpt>
      <trkpt lat="42.43212" lon="2.27561">
        <ele>2437.56</ele>
        <time>2017-02-06T12:08:27Z</time>
      </trkpt>
      <trkpt lat="42.43236" lon="2.27458">
        <ele>2427.95</ele>
        <time>2017-02-06T12:09:51Z</time>
      </trkpt>
      <trkpt lat="42.43236" lon="2.27457">
        <ele>2424.1</ele>
        <time>2017-02-06T12:09:52Z</time>
      </trkpt>
      <trkpt lat="42.43276" lon="2.27424">
        <ele>2415.93</ele>
        <time>2017-02-06T12:10:57Z</time>
      </trkpt>
      <trkpt lat="42.43278" lon="2.27356">
        <ele>2414.01</ele>
        <time>2017-02-06T12:12:13Z</time>
      </trkpt>
      <trkpt lat="42.43249" lon="2.27316">
        <ele>2401.03</ele>
        <time>2017-02-06T12:12:40Z</time>
      </trkpt>
      <trkpt lat="42.43216" lon="2.27238">
        <ele>2384.21</ele>
        <time>2017-02-06T12:26:04Z</time>
      </trkpt>
      <trkpt lat="42.43199" lon="2.27184">
        <ele>2366.9</ele>
        <time>2017-02-06T12:27:05Z</time>
      </trkpt>
      <trkpt lat="42.43075" lon="2.27111">
        <ele>2304.42</ele>
        <time>2017-02-06T12:28:41Z</time>
      </trkpt>
      <trkpt lat="42.43013" lon="2.27052">
        <ele>2277.5</ele>
        <time>2017-02-06T12:29:39Z</time>
      </trkpt>
      <trkpt lat="42.43011" lon="2.2705">
        <ele>2276.54</ele>
        <time>2017-02-06T12:29:40Z</time>
      </trkpt>
      <trkpt lat="42.42969" lon="2.2704">
        <ele>2260.68</ele>
        <time>2017-02-06T12:29:51Z</time>
      </trkpt>
      <trkpt lat="42.42969" lon="2.2704">
        <ele>2264.52</ele>
        <time>2017-02-06T12:29:52Z</time>
      </trkpt>
      <trkpt lat="42.42899" lon="2.26905">
        <ele>2220.3</ele>
        <time>2017-02-06T12:32:02Z</time>
      </trkpt>
      <trkpt lat="42.42898" lon="2.26902">
        <ele>2220.3</ele>
        <time>2017-02-06T12:32:03Z</time>
      </trkpt>
      <trkpt lat="42.42879" lon="2.26742">
        <ele>2199.15</ele>
        <time>2017-02-06T12:33:15Z</time>
      </trkpt>
      <trkpt lat="42.42847" lon="2.26711">
        <ele>2191.94</ele>
        <time>2017-02-06T12:33:23Z</time>
      </trkpt>
      <trkpt lat="42.42775" lon="2.26597">
        <ele>2150.61</ele>
        <time>2017-02-06T12:35:05Z</time>
      </trkpt>
      <trkpt lat="42.42743" lon="2.26527">
        <ele>2149.16</ele>
        <time>2017-02-06T12:35:27Z</time>
      </trkpt>
      <trkpt lat="42.42737" lon="2.26516">
        <ele>2145.32</ele>
        <time>2017-02-06T12:35:32Z</time>
      </trkpt>
      <trkpt lat="42.42734" lon="2.26513">
        <ele>2144.84</ele>
        <time>2017-02-06T12:35:36Z</time>
      </trkpt>
      <trkpt lat="42.42709" lon="2.26506">
        <ele>2136.67</ele>
        <time>2017-02-06T12:35:59Z</time>
      </trkpt>
      <trkpt lat="42.42708" lon="2.26505">
        <ele>2136.67</ele>
        <time>2017-02-06T12:36:00Z</time>
      </trkpt>
      <trkpt lat="42.42697" lon="2.26495">
        <ele>2141.95</ele>
        <time>2017-02-06T12:36:10Z</time>
      </trkpt>
      <trkpt lat="42.4265" lon="2.26424">
        <ele>2121.77</ele>
        <time>2017-02-06T13:07:49Z</time>
      </trkpt>
      <trkpt lat="42.42636" lon="2.26408">
        <ele>2131.86</ele>
        <time>2017-02-06T13:08:02Z</time>
      </trkpt>
      <trkpt lat="42.42611" lon="2.26274">
        <ele>2132.82</ele>
        <time>2017-02-06T13:11:19Z</time>
      </trkpt>
      <trkpt lat="42.42564" lon="2.26261">
        <ele>2130.42</ele>
        <time>2017-02-06T13:12:06Z</time>
      </trkpt>
      <trkpt lat="42.4253" lon="2.26318">
        <ele>2119.36</ele>
        <time>2017-02-06T13:14:24Z</time>
      </trkpt>
      <trkpt lat="42.42507" lon="2.26352">
        <ele>2107.83</ele>
        <time>2017-02-06T13:14:31Z</time>
      </trkpt>
      <trkpt lat="42.42423" lon="2.26354">
        <ele>2101.58</ele>
        <time>2017-02-06T13:16:15Z</time>
      </trkpt>
      <trkpt lat="42.4239" lon="2.26381">
        <ele>2078.03</ele>
        <time>2017-02-06T13:16:38Z</time>
      </trkpt>
      <trkpt lat="42.42384" lon="2.26408">
        <ele>2071.78</ele>
        <time>2017-02-06T13:17:34Z</time>
      </trkpt>
      <trkpt lat="42.42354" lon="2.2645">
        <ele>2061.68</ele>
        <time>2017-02-06T13:17:43Z</time>
      </trkpt>
      <trkpt lat="42.42318" lon="2.26502">
        <ele>2052.07</ele>
        <time>2017-02-06T13:17:51Z</time>
      </trkpt>
      <trkpt lat="42.423" lon="2.26597">
        <ele>2025.15</ele>
        <time>2017-02-06T13:19:35Z</time>
      </trkpt>
      <trkpt lat="42.42294" lon="2.26667">
        <ele>2019.87</ele>
        <time>2017-02-06T13:20:08Z</time>
      </trkpt>
      <trkpt lat="42.42295" lon="2.26667">
        <ele>2015.54</ele>
        <time>2017-02-06T13:20:10Z</time>
      </trkpt>
      <trkpt lat="42.42294" lon="2.26668">
        <ele>2016.98</ele>
        <time>2017-02-06T13:20:18Z</time>
      </trkpt>
      <trkpt lat="42.42273" lon="2.26725">
        <ele>1999.2</ele>
        <time>2017-02-06T13:20:54Z</time>
      </trkpt>
      <trkpt lat="42.42239" lon="2.26765">
        <ele>1988.14</ele>
        <time>2017-02-06T13:23:52Z</time>
      </trkpt>
      <trkpt lat="42.42239" lon="2.26765">
        <ele>1988.14</ele>
        <time>2017-02-06T13:23:53Z</time>
      </trkpt>
      <trkpt lat="42.42197" lon="2.26799">
        <ele>1981.41</ele>
        <time>2017-02-06T13:25:34Z</time>
      </trkpt>
      <trkpt lat="42.42099" lon="2.2691">
        <ele>1972.76</ele>
        <time>2017-02-06T13:27:56Z</time>
      </trkpt>
      <trkpt lat="42.42048" lon="2.26995">
        <ele>1966.03</ele>
        <time>2017-02-06T14:08:49Z</time>
      </trkpt>
      <trkpt lat="42.42134" lon="2.2687">
        <ele>1980.45</ele>
        <time>2017-02-06T14:12:28Z</time>
      </trkpt>
      <trkpt lat="42.42171" lon="2.26811">
        <ele>1991.51</ele>
        <time>2017-02-06T14:13:37Z</time>
      </trkpt>
      <trkpt lat="42.42175" lon="2.26806">
        <ele>1989.59</ele>
        <time>2017-02-06T14:13:45Z</time>
      </trkpt>
      <trkpt lat="42.42235" lon="2.2674">
        <ele>1998.24</ele>
        <time>2017-02-06T14:15:42Z</time>
      </trkpt>
      <trkpt lat="42.42217" lon="2.26719">
        <ele>2000.64</ele>
        <time>2017-02-06T14:16:10Z</time>
      </trkpt>
      <trkpt lat="42.42174" lon="2.2669">
        <ele>1995.83</ele>
        <time>2017-02-06T14:17:12Z</time>
      </trkpt>
      <trkpt lat="42.42157" lon="2.26677">
        <ele>2003.52</ele>
        <time>2017-02-06T14:17:38Z</time>
      </trkpt>
      <trkpt lat="42.42134" lon="2.26648">
        <ele>2009.29</ele>
        <time>2017-02-06T14:18:54Z</time>
      </trkpt>
      <trkpt lat="42.42135" lon="2.26629">
        <ele>2017.46</ele>
        <time>2017-02-06T14:20:14Z</time>
      </trkpt>
      <trkpt lat="42.42143" lon="2.26594">
        <ele>2035.73</ele>
        <time>2017-02-06T14:22:03Z</time>
      </trkpt>
      <trkpt lat="42.42156" lon="2.26553">
        <ele>2037.17</ele>
        <time>2017-02-06T14:24:01Z</time>
      </trkpt>
      <trkpt lat="42.42178" lon="2.26524">
        <ele>2050.63</ele>
        <time>2017-02-06T14:26:13Z</time>
      </trkpt>
      <trkpt lat="42.42194" lon="2.26487">
        <ele>2060.24</ele>
        <time>2017-02-06T14:27:25Z</time>
      </trkpt>
      <trkpt lat="42.42196" lon="2.26484">
        <ele>2065.53</ele>
        <time>2017-02-06T14:27:29Z</time>
      </trkpt>
      <trkpt lat="42.42171" lon="2.26427">
        <ele>2071.78</ele>
        <time>2017-02-06T14:29:25Z</time>
      </trkpt>
      <trkpt lat="42.42129" lon="2.26318">
        <ele>2078.99</ele>
        <time>2017-02-06T14:34:44Z</time>
      </trkpt>
      <trkpt lat="42.42106" lon="2.26171">
        <ele>2123.21</ele>
        <time>2017-02-06T14:40:31Z</time>
      </trkpt>
      <trkpt lat="42.42076" lon="2.26063">
        <ele>2155.89</ele>
        <time>2017-02-06T14:46:14Z</time>
      </trkpt>
      <trkpt lat="42.42059" lon="2.25979">
        <ele>2164.06</ele>
        <time>2017-02-06T14:48:26Z</time>
      </trkpt>
      <trkpt lat="42.42045" lon="2.25896">
        <ele>2176.56</ele>
        <time>2017-02-06T14:51:06Z</time>
      </trkpt>
      <trkpt lat="42.42043" lon="2.25883">
        <ele>2184.25</ele>
        <time>2017-02-06T14:51:36Z</time>
      </trkpt>
      <trkpt lat="42.42041" lon="2.25857">
        <ele>2191.94</ele>
        <time>2017-02-06T14:54:05Z</time>
      </trkpt>
      <trkpt lat="42.42044" lon="2.25834">
        <ele>2205.88</ele>
        <time>2017-02-06T14:55:49Z</time>
      </trkpt>
      <trkpt lat="42.42032" lon="2.25818">
        <ele>2208.29</ele>
        <time>2017-02-06T14:57:31Z</time>
      </trkpt>
      <trkpt lat="42.42032" lon="2.25818">
        <ele>2208.29</ele>
        <time>2017-02-06T14:57:32Z</time>
      </trkpt>
      <trkpt lat="42.42007" lon="2.25796">
        <ele>2224.63</ele>
        <time>2017-02-06T14:59:16Z</time>
      </trkpt>
      <trkpt lat="42.41987" lon="2.25777">
        <ele>2226.07</ele>
        <time>2017-02-06T15:00:44Z</time>
      </trkpt>
      <trkpt lat="42.4197" lon="2.25766">
        <ele>2241.45</ele>
        <time>2017-02-06T15:02:02Z</time>
      </trkpt>
      <trkpt lat="42.41954" lon="2.2575">
        <ele>2227.51</ele>
        <time>2017-02-06T15:02:55Z</time>
      </trkpt>
    </trkseg>
  </trk>
</gpx>